createdAt,value
2023-01-30T11:39:13.198Z,6.50
2023-01-30T11:52:01.790Z,6.60
2023-01-30T11:54:41.792Z,6.80
2023-01-30T11:57:14.810Z,7.20
2023-01-30T11:59:48.930Z,7.20
2023-01-30T12:02:24.096Z,7.20
2023-01-30T12:04:55.538Z,6.90
2023-01-30T12:07:34.251Z,6.60
2023-01-30T12:10:01.001Z,6.60
2023-01-30T12:12:47.718Z,6.50
2023-01-30T12:15:33.882Z,6.40
2023-01-30T12:18:21.675Z,6.30
2023-01-30T12:21:00.217Z,6.30
2023-01-30T12:23:53.928Z,6.30
2023-01-30T12:26:26.505Z,6.40
2023-01-30T12:29:24.344Z,6.40
2023-01-30T12:32:14.422Z,6.30
2023-01-30T12:34:42.383Z,6.30
2023-01-30T12:37:14.779Z,6.30
2023-01-30T12:40:02.404Z,6.40
2023-01-30T12:42:55.495Z,6.40
2023-01-30T12:45:23.184Z,6.30
2023-01-30T12:48:30.047Z,6.30
2023-01-30T12:51:17.894Z,6.30
2023-01-30T12:53:50.824Z,6.30
2023-01-30T12:56:42.361Z,6.20
2023-01-30T12:59:46.910Z,6.20
2023-01-30T13:02:40.406Z,6.20
2023-01-30T13:05:21.353Z,6.20
2023-01-30T13:08:26.888Z,6.30
2023-01-30T13:11:05.863Z,6.30
2023-01-30T13:13:52.924Z,6.40
2023-01-30T13:17:11.606Z,6.30
2023-01-30T13:19:43.157Z,6.20
2023-01-30T13:22:35.169Z,6.20
2023-01-30T13:25:22.928Z,6.20
2023-01-30T13:28:00.132Z,6.10
2023-01-30T13:30:29.336Z,6.20
2023-01-30T13:33:00.687Z,6.20
2023-01-30T13:35:41.307Z,6.40
2023-01-30T13:38:14.911Z,6.40
2023-01-30T13:40:44.120Z,6.30
2023-01-30T13:43:29.029Z,6.20
2023-01-30T13:45:59.288Z,6.10
2023-01-30T13:48:53.862Z,6.00
2023-01-30T13:51:43.115Z,6.10
2023-01-30T13:54:21.661Z,6.20
2023-01-30T13:57:06.908Z,6.40
2023-01-30T14:00:05.408Z,6.40
2023-01-30T14:02:33.165Z,6.30
2023-01-30T14:04:59.983Z,6.30
2023-01-30T14:07:41.113Z,6.30
2023-01-30T14:10:10.753Z,6.30
2023-01-30T14:12:52.412Z,6.20
2023-01-30T14:15:24.763Z,6.10
2023-01-30T14:18:22.081Z,6.10
2023-01-30T14:20:51.457Z,6.10
2023-01-30T14:53:50.948Z,5.90
2023-01-30T14:59:00.134Z,5.90
2023-01-30T15:01:26.919Z,5.80
2023-01-30T15:03:54.655Z,5.70
2023-01-30T15:08:52.831Z,5.60
2023-01-30T15:11:30.278Z,5.60
2023-01-30T15:14:07.430Z,5.50
2023-01-30T15:17:05.595Z,5.50
2023-01-30T15:22:18.379Z,5.40
2023-01-30T15:25:16.509Z,5.40
2023-01-30T15:28:12.204Z,5.40
2023-01-30T15:30:57.402Z,5.40
2023-01-30T15:33:31.452Z,5.40
2023-01-30T15:36:00.000Z,5.50
2023-01-30T15:38:32.732Z,5.50
2023-01-30T15:41:05.304Z,5.40
2023-01-30T15:43:40.793Z,5.40
2023-01-30T15:46:19.440Z,5.30
2023-01-30T15:48:55.064Z,5.30
2023-01-30T15:51:33.339Z,5.30
2023-01-30T15:54:03.432Z,5.30
2023-01-30T15:56:31.995Z,5.40
2023-01-30T15:59:01.525Z,5.40
2023-01-30T16:01:28.729Z,5.50
2023-01-30T16:03:57.844Z,5.50
2023-01-30T16:06:28.850Z,5.50
2023-01-30T16:09:00.899Z,5.50
2023-01-30T16:11:41.875Z,5.50
2023-01-30T16:14:16.966Z,5.50
2023-01-30T16:16:49.667Z,5.50
2023-01-30T16:19:37.920Z,5.50
2023-01-30T16:22:15.438Z,5.50
2023-01-30T16:24:45.757Z,5.40
2023-01-30T16:27:48.217Z,5.50
2023-01-30T16:30:24.579Z,5.50
2023-01-30T16:32:53.019Z,5.40
2023-01-30T16:35:27.517Z,5.30
2023-01-30T16:37:56.825Z,5.30
2023-01-30T16:40:49.751Z,5.20
2023-01-30T16:43:27.425Z,5.20
2023-01-30T16:46:43.199Z,5.10
2023-01-30T16:49:18.307Z,5.10
2023-01-30T16:51:45.698Z,5.10
2023-01-30T16:54:25.026Z,5.10
2023-01-30T16:56:55.569Z,5.20
2023-01-30T16:59:34.449Z,5.20
2023-01-30T17:02:05.804Z,5.20
2023-01-30T17:04:35.580Z,5.20
2023-01-30T17:07:04.635Z,5.20
2023-01-30T17:09:38.710Z,5.20
2023-01-30T17:12:37.021Z,5.30
2023-01-30T17:15:09.757Z,5.30
2023-01-30T17:17:36.377Z,5.30
2023-01-30T17:20:03.885Z,5.30
2023-01-30T17:22:31.683Z,5.30
2023-01-30T17:25:03.955Z,5.30
2023-01-30T17:27:31.544Z,5.30
2023-01-30T17:29:58.227Z,5.30
2023-01-30T17:32:24.919Z,5.30
2023-01-30T17:34:51.573Z,5.30
2023-01-30T17:37:22.276Z,5.30
2023-01-30T17:39:49.127Z,5.30
2023-01-30T17:42:21.801Z,5.30
2023-01-30T17:44:48.568Z,5.20
2023-01-30T17:47:15.210Z,5.20
2023-01-30T17:49:41.914Z,5.20
2023-01-30T17:52:12.904Z,5.10
2023-01-30T17:54:39.773Z,5.10
2023-01-30T17:57:09.755Z,5.20
2023-01-30T17:59:36.430Z,5.20
2023-01-30T18:02:03.540Z,5.20
2023-01-30T18:04:30.181Z,5.10
2023-01-30T18:07:04.319Z,5.00
2023-01-30T18:09:31.786Z,4.90
2023-01-30T18:11:58.532Z,4.90
2023-01-30T18:14:25.266Z,4.90
2023-01-30T18:16:51.976Z,4.90
2023-01-30T18:19:23.741Z,4.90
2023-01-30T18:21:51.609Z,4.90
2023-01-30T18:24:18.699Z,4.90
2023-01-30T18:26:46.294Z,4.90
2023-01-30T18:29:13.622Z,5.00
2023-01-30T18:31:40.987Z,5.00
2023-01-30T18:34:09.786Z,5.10
2023-01-30T18:36:37.226Z,5.10
2023-01-30T18:39:05.458Z,5.10
2023-01-30T18:41:32.486Z,5.10
2023-01-30T18:44:05.085Z,5.10
2023-01-30T18:46:32.183Z,5.10
2023-01-30T18:48:59.611Z,5.10
2023-01-30T18:51:33.809Z,5.10
2023-01-30T18:54:01.505Z,5.00
2023-01-30T18:56:33.636Z,5.00
2023-01-30T18:59:03.762Z,5.00
2023-01-30T19:01:38.006Z,5.00
2023-01-30T19:04:07.021Z,5.00
2023-01-30T19:06:41.239Z,5.00
2023-01-30T19:09:11.727Z,4.90
2023-01-30T19:11:56.845Z,4.90
2023-01-30T19:14:23.486Z,4.90
2023-01-30T19:16:51.271Z,4.90
2023-01-30T19:19:18.611Z,4.90
2023-01-30T19:21:45.354Z,4.90
2023-01-30T19:24:14.981Z,4.80
2023-01-30T19:26:41.963Z,4.80
2023-01-30T19:29:09.438Z,4.80
2023-01-30T19:31:36.279Z,4.80
2023-01-30T19:34:07.882Z,4.80
2023-01-30T19:36:36.496Z,4.80
2023-01-30T19:39:05.812Z,4.80
2023-01-30T19:41:35.026Z,4.80
2023-01-30T19:44:03.980Z,4.70
2023-01-30T19:46:31.194Z,4.70
2023-01-30T19:48:59.109Z,4.80
2023-01-30T19:51:31.643Z,4.70
2023-01-30T19:54:06.848Z,4.70
2023-01-30T19:56:34.460Z,4.80
2023-01-30T19:59:02.265Z,4.80
2023-01-30T20:01:32.603Z,4.80
2023-01-30T20:04:01.710Z,4.80
2023-01-30T20:06:30.825Z,4.80
2023-01-30T20:09:00.163Z,4.80
2023-01-30T20:11:27.440Z,4.80
2023-01-30T20:13:54.639Z,4.70
2023-01-30T20:16:25.324Z,4.70
2023-01-30T20:18:56.412Z,4.70
2023-01-30T20:21:23.920Z,4.70
2023-01-30T20:23:50.933Z,4.70
2023-01-30T20:26:20.584Z,4.70
2023-01-30T20:28:47.677Z,4.70
2023-01-30T20:31:17.504Z,4.80
2023-01-30T20:33:44.631Z,4.80
2023-01-30T20:36:14.611Z,4.70
2023-01-30T20:38:43.675Z,4.70
2023-01-30T20:41:15.967Z,4.70
2023-01-30T20:43:45.318Z,4.70
2023-01-30T20:46:23.490Z,4.60
2023-01-30T20:48:54.414Z,4.60
2023-01-30T20:51:24.813Z,4.60
2023-01-30T20:53:56.466Z,4.60
2023-01-30T20:56:25.584Z,4.70
2023-01-30T20:58:52.367Z,4.70
2023-01-30T21:01:22.079Z,4.70
2023-01-30T21:03:50.652Z,4.70
2023-01-30T21:06:41.754Z,4.70
2023-01-30T21:09:12.477Z,4.70
2023-01-30T21:11:39.898Z,4.60
2023-01-30T21:14:07.366Z,4.60
2023-01-30T21:16:35.605Z,4.60
2023-01-30T21:19:05.398Z,4.60
2023-01-30T21:21:39.236Z,4.60
2023-01-30T21:24:09.106Z,4.60
2023-01-30T21:26:38.094Z,4.60
2023-01-30T21:29:06.717Z,4.60
2023-01-30T21:31:35.843Z,4.70
2023-01-30T21:34:03.238Z,4.70
2023-01-30T21:36:29.920Z,4.60
2023-01-30T21:39:17.122Z,4.60
2023-01-30T21:41:50.783Z,4.60
2023-01-30T21:44:19.351Z,4.60
2023-01-30T21:46:47.932Z,4.60
2023-01-30T21:49:16.442Z,4.70
2023-01-30T21:51:45.479Z,4.70
2023-01-30T21:54:13.052Z,4.70
2023-01-30T21:56:40.245Z,4.80
2023-01-30T21:59:07.133Z,4.70
2023-01-30T22:01:35.748Z,4.70
2023-01-30T22:04:04.569Z,4.70
2023-01-30T22:06:31.670Z,4.70
2023-01-30T22:08:59.808Z,4.60
2023-01-30T22:11:27.855Z,4.50
2023-01-30T22:13:55.322Z,4.40
2023-01-30T22:16:24.781Z,4.40
2023-01-30T22:18:57.001Z,4.30
2023-01-30T22:21:26.710Z,4.30
2023-01-30T22:23:54.972Z,4.20
2023-01-30T22:26:24.070Z,4.20
2023-01-30T22:28:55.678Z,4.10
2023-01-30T22:31:23.530Z,4.00
2023-01-30T22:33:53.502Z,4.00
2023-01-30T22:36:23.356Z,3.90
2023-01-30T22:38:50.594Z,3.90
2023-01-30T22:41:20.032Z,3.90
2023-01-30T22:43:50.199Z,3.80
2023-01-30T22:46:18.732Z,3.80
2023-01-30T22:48:46.167Z,3.80
2023-01-30T22:51:14.213Z,3.80
2023-01-30T22:53:52.125Z,3.80
2023-01-30T22:56:21.882Z,3.80
2023-01-30T22:58:50.369Z,3.80
2023-01-30T23:01:18.814Z,3.80
2023-01-30T23:03:46.872Z,3.80
2023-01-30T23:06:16.161Z,3.80
2023-01-30T23:08:45.262Z,3.90
2023-01-30T23:11:18.711Z,3.90
2023-01-30T23:13:50.700Z,3.90
2023-01-30T23:16:21.299Z,3.90
2023-01-30T23:18:58.284Z,3.90
2023-01-30T23:21:31.705Z,4.00
2023-01-30T23:24:00.699Z,4.00
2023-01-30T23:26:31.074Z,4.00
2023-01-30T23:28:58.514Z,4.00
2023-01-30T23:31:26.758Z,3.90
2023-01-30T23:33:55.389Z,3.90
2023-01-30T23:36:22.835Z,3.90
2023-01-30T23:38:51.303Z,3.90
2023-01-30T23:41:20.524Z,4.00
2023-01-30T23:43:47.869Z,4.00
2023-01-30T23:46:27.085Z,3.90
2023-01-30T23:49:02.370Z,3.90
2023-01-30T23:51:30.585Z,3.80
2023-01-30T23:53:57.567Z,3.90
2023-01-30T23:56:29.504Z,3.80
2023-01-30T23:58:58.651Z,3.90
